

Wyoming Mesonet
Water Resources Data System and State Climate Office
SEO WACNet, UW USACE UMRB, USDA-ARS, BLM
| Wind | Soil | |||||||||||||||||||
| Temp | Precip | Speed | Dir | Gust | Dir | Humidity | Pressure | Solar | Snow | Temperature (Deg F) | Moisture (%) | |||||||||
| Date Time (MST) | (F) | (in) | (mph) | (deg) | (mph) | (deg) | (%) | (Mbars) | (w/m^2) | (in) | 5cm | 10cm | 20cm | 50cm | 1m | 5cm | 10cm | 20cm | 50cm | 1m |
| 2026-08-30 00:00:00 | 61.86 | 0.00 | 3.21 | 245 | 13.29 | 235 | 82.5 | 863.0 | 0.0 | 0.0 | 77.54 | 78.80 | 79.34 | 74.84 | 71.78 | 0.0% | 8.8% | 12.6% | 16.5% | 10.0% |
| 2026-08-30 01:00:00 | 61.93 | 0.00 | 1.83 | 204 | 4.97 | 179 | 77.0 | 863.0 | 0.0 | -0.1 | 76.46 | 78.08 | 78.98 | 75.02 | 71.78 | 0.0% | 8.7% | 12.6% | 16.6% | 10.0% |
| 2026-08-30 02:00:00 | 61.00 | 0.00 | 4.47 | 210 | 8.94 | 177 | 80.2 | 863.0 | 0.0 | 0.0 | 75.56 | 77.36 | 78.62 | 75.02 | 71.78 | 0.0% | 8.7% | 12.5% | 16.6% | 10.0% |
| 2026-08-30 03:00:00 | 59.14 | 0.00 | 5.80 | 142 | 9.32 | 132 | 79.2 | 863.0 | 0.0 | 0.1 | 74.84 | 76.64 | 78.26 | 75.02 | 71.78 | 0.0% | 8.6% | 12.5% | 16.5% | 10.0% |
| 2026-08-30 04:00:00 | 57.81 | 0.00 | 3.03 | 182 | 7.70 | 159 | 83.0 | 864.0 | 0.0 | 0.0 | 74.12 | 75.92 | 77.72 | 75.02 | 71.78 | 0.0% | 8.6% | 12.5% | 16.5% | 10.0% |
| 2026-08-30 05:00:00 | 58.24 | 0.00 | 5.62 | 149 | 7.33 | 151 | 76.1 | 863.0 | 0.0 | 0.0 | 73.58 | 75.38 | 77.36 | 75.02 | 71.78 | 0.0% | 8.6% | 12.4% | 16.6% | 10.1% |
| 2026-08-30 06:00:00 | 59.61 | 0.00 | 6.98 | 154 | 10.68 | 155 | 73.7 | 864.0 | 73.5 | 0.1 | 73.04 | 75.02 | 77.00 | 75.02 | 71.78 | 0.0% | 8.6% | 12.4% | 16.6% | 10.1% |
| 2026-08-30 07:00:00 | 65.28 | 0.00 | 5.83 | 171 | 11.05 | 172 | 62.1 | 864.0 | 282.3 | 0.2 | 72.68 | 74.48 | 76.64 | 75.20 | 71.78 | 0.0% | 8.6% | 12.4% | 16.6% | 10.0% |
| 2026-08-30 08:00:00 | 69.66 | 0.00 | 6.99 | 191 | 11.55 | 142 | 51.9 | 864.0 | 448.1 | 0.2 | 72.86 | 74.12 | 76.28 | 75.02 | 71.78 | 0.0% | 8.6% | 12.3% | 16.6% | 10.0% |
| 2026-08-30 09:00:00 | 70.25 | 0.00 | 9.21 | 181 | 12.55 | 165 | 47.7 | 864.0 | 546.9 | 0.2 | 73.40 | 74.12 | 75.92 | 75.02 | 71.78 | 0.0% | 8.6% | 12.2% | 16.7% | 10.0% |
| 2026-08-30 10:00:00 | 77.94 | 0.00 | 7.73 | 203 | 15.03 | 170 | 40.5 | 864.0 | 727.0 | 0.3 | 74.30 | 74.30 | 75.74 | 75.02 | 71.78 | 0.0% | 8.5% | 12.3% | 16.6% | 10.0% |
| 2026-08-30 11:00:00 | 81.46 | 0.00 | 10.36 | 231 | 16.15 | 225 | 33.5 | 864.0 | 811.0 | 0.3 | 75.92 | 74.84 | 75.74 | 75.02 | 71.96 | 0.0% | 8.6% | 12.3% | 16.6% | 10.0% |
| 2026-08-30 12:00:00 | 83.44 | 0.00 | 8.81 | 193 | 20.74 | 203 | 27.7 | 863.0 | 676.9 | 0.4 | 78.44 | 75.92 | 75.74 | 75.02 | 71.78 | 0.0% | 8.6% | 12.3% | 16.5% | 9.9% |
| 2026-08-30 13:00:00 | 84.65 | 0.00 | 13.71 | 251 | 25.34 | 229 | 19.9 | 863.0 | 702.6 | 0.0 | 81.68 | 77.54 | 75.92 | 75.02 | 71.96 | 0.0% | 8.6% | 12.2% | 16.6% | 10.1% |
| 2026-08-30 14:00:00 | 83.14 | 0.00 | 20.36 | 266 | 30.56 | 262 | 17.5 | 863.0 | 148.3 | -0.3 | 83.84 | 78.98 | 76.64 | 74.84 | 71.78 | 0.0% | 8.7% | 12.4% | 16.5% | 9.9% |
| 2026-08-30 15:00:00 | 62.74 | 0.00 | 24.09 | 357 | 52.30 | 330 | 58.9 | 866.0 | 401.7 | 0.0 | 83.84 | 80.06 | 77.18 | 74.84 | 71.78 | 0.0% | 8.8% | 12.4% | 16.5% | 10.0% |
| 2026-08-30 16:00:00 | 62.64 | 0.00 | 18.25 | 7 | 31.05 | 352 | 58.5 | 866.0 | 265.1 | 0.1 | 82.94 | 80.24 | 77.72 | 74.84 | 71.78 | 0.0% | 8.8% | 12.5% | 16.5% | 10.0% |
| 2026-08-30 17:00:00 | 65.55 | 0.00 | 11.67 | 41 | 25.34 | 345 | 50.1 | 865.0 | 284.2 | 0.3 | 82.22 | 79.88 | 77.90 | 74.84 | 71.78 | 0.0% | 8.8% | 12.5% | 16.5% | 10.0% |
| 2026-08-30 18:00:00 | 65.53 | 0.00 | 5.17 | 67 | 14.91 | 56 | 49.6 | 865.0 | 104.5 | 0.1 | 81.50 | 79.70 | 78.08 | 74.84 | 71.78 | 0.0% | 8.7% | 12.5% | 16.5% | 9.9% |
| 2026-08-30 19:00:00 | 59.95 | 0.00 | 3.41 | 9 | 7.33 | 10 | 56.8 | 866.0 | 0.0 | -0.1 | 80.06 | 79.34 | 78.26 | 74.84 | 71.96 | 0.0% | 8.7% | 12.5% | 16.5% | 9.9% |
| 2026-08-30 20:00:00 | 59.38 | 0.00 | 7.28 | 36 | 12.80 | 33 | 59.0 | 866.0 | 0.0 | 0.0 | 78.44 | 78.62 | 78.08 | 74.66 | 71.78 | 0.0% | 8.7% | 12.6% | 16.5% | 10.1% |
| 2026-08-30 21:00:00 | 55.36 | 0.00 | 2.58 | 30 | 10.56 | 46 | 65.8 | 867.0 | 0.0 | -0.2 | 77.00 | 77.90 | 77.90 | 74.84 | 71.96 | 0.0% | 8.6% | 12.5% | 16.5% | 10.0% |
| 2026-08-30 22:00:00 | 55.54 | 0.00 | 6.67 | 40 | 8.69 | 48 | 63.9 | 867.0 | 0.0 | -0.2 | 75.74 | 77.00 | 77.72 | 74.66 | 71.96 | 0.0% | 8.6% | 12.5% | 16.5% | 10.0% |
| 2026-08-30 23:00:00 | 55.40 | 0.00 | 0.00 | 0 | 6.46 | 36 | 62.6 | 867.0 | 0.0 | -0.2 | 74.48 | 76.28 | 77.36 | 74.84 | 71.96 | 0.0% | 8.6% | 12.4% | 16.5% | 10.0% |